Time;durP1;ratioP1;P1;durP2;ratioP2;P2;SDS_P1;SDS_P2;PMS_P1;PMS_P2;Temp;Humidity;BMP_temperature;BMP_pressure;BME280_temperature;BME280_humidity;BME280_pressure;Samples;Min_cycle;Max_cycle;Signal;HPM_P1;HPM_P2
2024/04/03 00:01:46;;;;;;;121.50;115.50;;;;;;;;;;5060251;28;20037;-59
2024/04/03 00:04:12;;;;;;;125.35;119.15;;;;;;;;;;5058368;28;20051;-59
2024/04/03 00:06:37;;;;;;;138.18;131.25;;;;;;;;;;5062586;28;20772;-59
2024/04/03 00:09:03;;;;;;;139.88;132.95;;;;;;;;;;5061207;28;20086;-59
2024/04/03 00:11:29;;;;;;;151.07;143.55;;;;;;;;;;5062176;28;20040;-59
2024/04/03 00:13:54;;;;;;;151.23;143.27;;;;;;;;;;5060824;28;20032;-59
2024/04/03 00:16:19;;;;;;;156.35;148.45;;;;;;;;;;5062217;28;20025;-59
2024/04/03 00:18:45;;;;;;;156.13;148.32;;;;;;;;;;5061638;28;20036;-59
2024/04/03 00:21:10;;;;;;;154.73;147.02;;;;;;;;;;5058603;28;20039;-59
2024/04/03 00:23:36;;;;;;;148.25;140.85;;;;;;;;;;5060449;28;20051;-59
2024/04/03 00:26:02;;;;;;;154.55;146.38;;;;;;;;;;5062238;28;20040;-59
2024/04/03 00:28:30;;;;;;;154.40;146.77;;;;;;;;;;5059796;28;20159;-60
2024/04/03 00:30:55;;;;;;;159.57;151.65;;;;;;;;;;5061399;28;20124;-59
2024/04/03 00:33:21;;;;;;;155.48;147.80;;;;;;;;;;5060901;28;20163;-59
2024/04/03 00:35:57;;;;;;;149.15;141.65;;;;;;;;;;5047222;28;20048;-59
2024/04/03 00:38:23;;;;;;;148.85;141.23;;;;;;;;;;5059517;28;20036;-59
2024/04/03 00:40:56;;;;;;;156.45;148.70;;;;;;;;;;5046901;28;20496;-59
2024/04/03 00:43:21;;;;;;;157.85;150.00;;;;;;;;;;5060515;28;20040;-60
2024/04/03 00:45:47;;;;;;;155.27;147.40;;;;;;;;;;5059783;28;20020;-60
2024/04/03 00:48:12;;;;;;;172.80;164.07;;;;;;;;;;5060469;28;20044;-60
2024/04/03 00:50:39;;;;;;;137.95;131.15;;;;;;;;;;5060176;28;20036;-59
2024/04/03 00:53:04;;;;;;;154.05;146.40;;;;;;;;;;5059729;28;20039;-60
2024/04/03 00:55:30;;;;;;;133.10;126.32;;;;;;;;;;5042227;28;20025;-60
2024/04/03 00:57:56;;;;;;;130.38;123.90;;;;;;;;;;5060495;28;20024;-60
2024/04/03 01:00:21;;;;;;;130.50;124.05;;;;;;;;;;5061173;28;20118;-60
2024/04/03 01:02:47;;;;;;;132.98;126.40;;;;;;;;;;5058764;28;20039;-60
2024/04/03 01:05:12;;;;;;;135.45;128.75;;;;;;;;;;5059772;28;20051;-60
2024/04/03 01:07:37;;;;;;;146.15;138.85;;;;;;;;;;5060119;28;20036;-60
2024/04/03 01:10:03;;;;;;;140.13;133.15;;;;;;;;;;5059745;28;20032;-60
2024/04/03 01:12:32;;;;;;;136.90;130.10;;;;;;;;;;5061928;28;20371;-60
2024/04/03 01:14:57;;;;;;;154.88;147.18;;;;;;;;;;5045640;28;20136;-60
2024/04/03 01:17:22;;;;;;;151.75;144.18;;;;;;;;;;5059457;28;20427;-60
2024/04/03 01:19:49;;;;;;;157.98;150.15;;;;;;;;;;5058806;28;20032;-60
2024/04/03 01:22:14;;;;;;;140.98;133.98;;;;;;;;;;5043307;28;20064;-60
2024/04/03 01:24:40;;;;;;;150.38;142.88;;;;;;;;;;5059920;28;20059;-60
2024/04/03 01:27:05;;;;;;;164.82;156.52;;;;;;;;;;5061441;28;20040;-60
2024/04/03 01:29:31;;;;;;;158.57;150.68;;;;;;;;;;5058711;28;20116;-60
2024/04/03 01:31:56;;;;;;;159.77;151.88;;;;;;;;;;5060935;28;20032;-60
2024/04/03 01:34:22;;;;;;;151.75;144.15;;;;;;;;;;5059817;28;20585;-60
2024/04/03 01:36:47;;;;;;;156.77;148.98;;;;;;;;;;5059864;28;20471;-60
2024/04/03 01:39:12;;;;;;;153.48;145.73;;;;;;;;;;5057997;28;20056;-60
2024/04/03 01:41:38;;;;;;;142.80;135.68;;;;;;;;;;5061469;28;20639;-60
2024/04/03 01:44:03;;;;;;;147.68;140.32;;;;;;;;;;5059639;28;20036;-60
2024/04/03 01:46:28;;;;;;;155.30;147.60;;;;;;;;;;5060157;28;20100;-60
2024/04/03 01:48:54;;;;;;;124.35;118.20;;;;;;;;;;5045610;28;20056;-59
2024/04/03 01:51:19;;;;;;;161.15;151.82;;;;;;;;;;5040189;28;20032;-59
2024/04/03 01:53:44;;;;;;;150.85;143.43;;;;;;;;;;5059022;28;20043;-60
2024/04/03 01:56:10;;;;;;;151.05;143.35;;;;;;;;;;5058807;28;20028;-60
2024/04/03 01:58:35;;;;;;;153.77;146.10;;;;;;;;;;5061287;28;20143;-59
2024/04/03 02:01:00;;;;;;;147.43;140.05;;;;;;;;;;5059060;28;20048;-60
2024/04/03 02:03:26;;;;;;;149.43;141.90;;;;;;;;;;5058231;28;20056;-60
2024/04/03 02:05:51;;;;;;;165.50;157.27;;;;;;;;;;5057746;28;20072;-60
2024/04/03 02:08:16;;;;;;;166.23;157.95;;;;;;;;;;5060228;28;20124;-60
2024/04/03 02:10:45;;;;;;;155.80;148.05;;;;;;;;;;5059314;28;20502;-60
2024/04/03 02:13:10;;;;;;;144.88;137.65;;;;;;;;;;5071416;28;20037;-60
2024/04/03 02:15:36;;;;;;;154.43;146.75;;;;;;;;;;5058279;28;20378;-60
2024/04/03 02:18:02;;;;;;;157.43;149.07;;;;;;;;;;5060212;28;20032;-60
2024/04/03 02:20:27;;;;;;;172.60;164.05;;;;;;;;;;5061539;28;20047;-60
2024/04/03 02:22:53;;;;;;;167.85;159.50;;;;;;;;;;5060686;28;20685;-60
2024/04/03 02:25:19;;;;;;;173.90;164.38;;;;;;;;;;5060197;28;20047;-60
2024/04/03 02:27:44;;;;;;;165.93;157.13;;;;;;;;;;5059931;28;20082;-60
2024/04/03 02:30:10;;;;;;;161.13;153.05;;;;;;;;;;5060876;28;20033;-60
2024/04/03 02:32:36;;;;;;;167.70;159.27;;;;;;;;;;5039788;28;20462;-60
2024/04/03 02:35:01;;;;;;;169.55;161.00;;;;;;;;;;5060336;28;20110;-60
2024/04/03 02:37:27;;;;;;;172.82;164.15;;;;;;;;;;5059690;28;20047;-60
2024/04/03 02:39:52;;;;;;;177.63;168.77;;;;;;;;;;5041625;28;20120;-60
2024/04/03 02:42:18;;;;;;;167.77;159.40;;;;;;;;;;5058210;28;20123;-60
2024/04/03 02:44:43;;;;;;;172.63;164.02;;;;;;;;;;5057313;28;20107;-60
2024/04/03 02:47:08;;;;;;;172.15;163.48;;;;;;;;;;5059297;28;20069;-60
2024/04/03 02:49:34;;;;;;;181.38;172.43;;;;;;;;;;5059970;28;20515;-60
2024/04/03 02:51:59;;;;;;;173.02;164.02;;;;;;;;;;5059307;28;20043;-60
2024/04/03 02:54:24;;;;;;;170.15;161.73;;;;;;;;;;5060805;28;20028;-60
2024/04/03 02:56:51;;;;;;;170.35;161.57;;;;;;;;;;5058159;28;20474;-60
2024/04/03 02:59:17;;;;;;;167.25;158.93;;;;;;;;;;5059512;28;20033;-60
2024/04/03 03:01:42;;;;;;;170.90;162.40;;;;;;;;;;5058519;28;20588;-60
2024/04/03 03:04:08;;;;;;;170.88;162.32;;;;;;;;;;5057083;28;20607;-60
2024/04/03 03:06:33;;;;;;;170.90;162.45;;;;;;;;;;5060447;28;20062;-60
2024/04/03 03:08:59;;;;;;;163.00;154.07;;;;;;;;;;5058783;28;20040;-60
2024/04/03 03:11:24;;;;;;;174.70;166.00;;;;;;;;;;5058890;28;20029;-60
2024/04/03 03:13:49;;;;;;;168.57;160.20;;;;;;;;;;5042232;28;20060;-60
2024/04/03 03:16:22;;;;;;;167.05;158.63;;;;;;;;;;5059477;28;20041;-60
2024/04/03 03:18:47;;;;;;;168.68;160.10;;;;;;;;;;5058099;28;20033;-60
2024/04/03 03:21:13;;;;;;;157.95;150.02;;;;;;;;;;5059407;28;20381;-60
2024/04/03 03:23:38;;;;;;;164.85;156.65;;;;;;;;;;5060835;28;20795;-59
2024/04/03 03:26:04;;;;;;;172.63;164.05;;;;;;;;;;5043139;28;20040;-60
2024/04/03 03:28:30;;;;;;;170.90;162.40;;;;;;;;;;5060365;28;20046;-60
2024/04/03 03:30:58;;;;;;;170.57;161.98;;;;;;;;;;5044358;28;20048;-59
2024/04/03 03:33:24;;;;;;;167.20;158.88;;;;;;;;;;5044236;28;20040;-60
2024/04/03 03:35:54;;;;;;;151.73;144.18;;;;;;;;;;5058531;28;20029;-60
2024/04/03 03:38:19;;;;;;;166.15;157.60;;;;;;;;;;5060940;28;20111;-60
2024/04/03 03:40:45;;;;;;;164.60;156.38;;;;;;;;;;5062423;28;20124;-60
2024/04/03 03:43:10;;;;;;;169.52;161.10;;;;;;;;;;5062247;28;20336;-60
2024/04/03 03:45:47;;;;;;;171.70;163.13;;;;;;;;;;5063423;28;20130;-60
2024/04/03 03:48:13;;;;;;;167.68;159.38;;;;;;;;;;5063070;28;20048;-60
2024/04/03 03:53:25;;;;;;;145.95;138.68;;;;;;;;;;5063832;28;20037;-60
2024/04/03 03:55:50;;;;;;;151.75;144.13;;;;;;;;;;5060957;28;20525;-59
2024/04/03 03:58:17;;;;;;;162.32;154.00;;;;;;;;;;5061455;28;20036;-60
2024/04/03 04:00:42;;;;;;;154.18;146.38;;;;;;;;;;5058804;28;20029;-59
2024/04/03 04:03:08;;;;;;;159.18;151.18;;;;;;;;;;5043681;28;20110;-59
2024/04/03 04:05:34;;;;;;;155.20;147.48;;;;;;;;;;5062145;28;20048;-59
2024/04/03 04:07:59;;;;;;;155.55;147.77;;;;;;;;;;5058948;28;20029;-59
2024/04/03 04:10:24;;;;;;;159.20;151.07;;;;;;;;;;5044383;28;20063;-59
2024/04/03 04:12:50;;;;;;;147.10;139.70;;;;;;;;;;5060779;28;20028;-57
2024/04/03 04:15:15;;;;;;;131.80;125.20;;;;;;;;;;5064726;28;20044;-56
2024/04/03 04:17:40;;;;;;;143.27;136.13;;;;;;;;;;5059359;28;20036;-57
2024/04/03 04:20:07;;;;;;;164.27;156.07;;;;;;;;;;5061677;28;20131;-55
2024/04/03 04:22:34;;;;;;;165.52;157.27;;;;;;;;;;5061798;28;20067;-57
2024/04/03 04:25:00;;;;;;;163.52;155.25;;;;;;;;;;5057214;28;20025;-56
2024/04/03 04:27:26;;;;;;;162.85;154.65;;;;;;;;;;5042271;28;20476;-57
2024/04/03 04:29:51;;;;;;;171.38;162.77;;;;;;;;;;5056898;28;20040;-57
2024/04/03 04:32:16;;;;;;;165.75;157.48;;;;;;;;;;5044504;28;20067;-57
2024/04/03 04:34:42;;;;;;;165.10;156.90;;;;;;;;;;5057937;28;20040;-57
2024/04/03 04:37:08;;;;;;;154.35;146.65;;;;;;;;;;5060920;28;20036;-57
2024/04/03 04:39:34;;;;;;;153.27;145.68;;;;;;;;;;5058921;28;20032;-56
2024/04/03 04:42:00;;;;;;;156.63;148.82;;;;;;;;;;5055922;28;20032;-57
2024/04/03 04:44:25;;;;;;;145.98;138.65;;;;;;;;;;5058704;28;20090;-55
2024/04/03 04:46:52;;;;;;;136.23;129.38;;;;;;;;;;5057506;28;20482;-57
2024/04/03 04:49:21;;;;;;;122.72;116.63;;;;;;;;;;5059028;28;20036;-57
2024/04/03 04:51:46;;;;;;;153.93;146.30;;;;;;;;;;5057582;28;20052;-56
2024/04/03 04:54:14;;;;;;;139.63;132.63;;;;;;;;;;5056629;28;20032;-57
2024/04/03 04:56:41;;;;;;;156.38;147.93;;;;;;;;;;5058517;28;20020;-57
2024/04/03 04:59:08;;;;;;;157.30;149.43;;;;;;;;;;5057558;28;20047;-57
2024/04/03 05:01:38;;;;;;;170.02;161.60;;;;;;;;;;5058937;28;20120;-57
2024/04/03 05:04:04;;;;;;;157.63;149.43;;;;;;;;;;5057759;28;20028;-57
2024/04/03 05:06:29;;;;;;;165.98;157.77;;;;;;;;;;5057749;28;20044;-56
2024/04/03 05:08:56;;;;;;;168.90;160.50;;;;;;;;;;5046077;28;20081;-56
2024/04/03 05:11:21;;;;;;;159.18;151.20;;;;;;;;;;5060434;28;20132;-56
2024/04/03 05:13:47;;;;;;;163.95;155.70;;;;;;;;;;5060474;28;20119;-58
2024/04/03 05:16:13;;;;;;;161.35;153.35;;;;;;;;;;5060346;28;20036;-57
2024/04/03 05:18:44;;;;;;;163.02;154.93;;;;;;;;;;5061311;28;20028;-57
2024/04/03 05:21:09;;;;;;;156.32;148.52;;;;;;;;;;5060259;28;20083;-58
2024/04/03 05:23:35;;;;;;;157.82;150.00;;;;;;;;;;5059112;28;20569;-54
2024/04/03 05:26:06;;;;;;;157.65;149.73;;;;;;;;;;5059415;28;20032;-55
2024/04/03 05:28:33;;;;;;;163.75;155.55;;;;;;;;;;5040433;28;20037;-56
2024/04/03 05:31:11;;;;;;;166.15;157.88;;;;;;;;;;5057642;28;20100;-52
2024/04/03 05:33:38;;;;;;;157.98;150.13;;;;;;;;;;5044924;28;20060;-52
2024/04/03 05:36:05;;;;;;;159.48;151.48;;;;;;;;;;5060183;28;20035;-54
2024/04/03 05:38:31;;;;;;;150.02;142.48;;;;;;;;;;5059264;28;20037;-55
2024/04/03 05:40:56;;;;;;;160.00;151.93;;;;;;;;;;5059676;28;20119;-55
2024/04/03 05:43:23;;;;;;;152.95;145.35;;;;;;;;;;5057011;28;20044;-56
2024/04/03 05:45:55;;;;;;;148.93;141.52;;;;;;;;;;5057289;28;20044;-54
2024/04/03 05:48:26;;;;;;;141.23;134.20;;;;;;;;;;5056023;28;20044;-53
2024/04/03 05:51:03;;;;;;;146.23;138.90;;;;;;;;;;5058238;28;20181;-55
2024/04/03 05:53:29;;;;;;;146.27;139.02;;;;;;;;;;5059227;28;20029;-53
2024/04/03 05:55:55;;;;;;;141.40;134.35;;;;;;;;;;5044582;28;21117;-52
2024/04/03 05:58:21;;;;;;;148.77;141.38;;;;;;;;;;5037339;28;20137;-54
2024/04/03 06:00:47;;;;;;;154.27;146.48;;;;;;;;;;5059463;28;20132;-54
2024/04/03 06:03:13;;;;;;;140.32;132.98;;;;;;;;;;5040943;28;20405;-54
2024/04/03 06:05:39;;;;;;;144.95;137.75;;;;;;;;;;5056332;28;20028;-51
2024/04/03 06:08:05;;;;;;;127.57;121.28;;;;;;;;;;5061028;28;20158;-54
2024/04/03 06:10:32;;;;;;;115.40;109.70;;;;;;;;;;5058037;28;20749;-54
2024/04/03 06:12:58;;;;;;;109.40;104.00;;;;;;;;;;5058707;28;20653;-54
2024/04/03 06:15:23;;;;;;;116.20;110.35;;;;;;;;;;5057714;28;20120;-55
2024/04/03 06:17:49;;;;;;;100.15;95.15;;;;;;;;;;5057964;28;20458;-53
2024/04/03 06:20:14;;;;;;;95.38;90.53;;;;;;;;;;5057572;28;20450;-53
2024/04/03 06:22:39;;;;;;;99.20;94.30;;;;;;;;;;5055512;28;20032;-54
2024/04/03 06:25:05;;;;;;;81.78;77.70;;;;;;;;;;5057417;28;20059;-50
2024/04/03 06:27:30;;;;;;;86.80;82.47;;;;;;;;;;5054844;28;20156;-54
2024/04/03 06:29:55;;;;;;;89.28;84.88;;;;;;;;;;5042373;28;20039;-54
2024/04/03 06:32:21;;;;;;;96.72;91.82;;;;;;;;;;5060379;28;20040;-53
2024/04/03 06:34:46;;;;;;;81.43;77.38;;;;;;;;;;5059314;28;20032;-55
2024/04/03 06:37:11;;;;;;;73.60;69.88;;;;;;;;;;5058796;28;20038;-53
2024/04/03 06:39:37;;;;;;;61.45;58.35;;;;;;;;;;5057924;28;20093;-53
2024/04/03 06:42:02;;;;;;;70.80;67.25;;;;;;;;;;5058740;28;20032;-53
2024/04/03 06:44:27;;;;;;;62.40;59.30;;;;;;;;;;5059332;28;20066;-54
2024/04/03 06:46:58;;;;;;;65.88;62.58;;;;;;;;;;5054746;28;20037;-52
2024/04/03 06:49:24;;;;;;;82.38;78.28;;;;;;;;;;5057914;28;20055;-52
2024/04/03 06:51:49;;;;;;;71.22;67.65;;;;;;;;;;5056424;28;20025;-52
2024/04/03 06:54:14;;;;;;;64.82;61.50;;;;;;;;;;5058663;28;20897;-51
2024/04/03 06:56:40;;;;;;;60.35;57.13;;;;;;;;;;5057095;28;20084;-54
2024/04/03 06:59:07;;;;;;;66.03;62.70;;;;;;;;;;5057125;28;20135;-54
2024/04/03 07:01:32;;;;;;;77.32;73.35;;;;;;;;;;5057225;28;20429;-53
2024/04/03 07:03:58;;;;;;;100.57;95.60;;;;;;;;;;5056926;28;20052;-51
2024/04/03 07:06:23;;;;;;;110.93;105.45;;;;;;;;;;5059080;28;20119;-50
2024/04/03 07:08:49;;;;;;;120.53;114.55;;;;;;;;;;5059510;28;20025;-54
2024/04/03 07:11:15;;;;;;;146.23;138.90;;;;;;;;;;5062053;28;20461;-51
2024/04/03 07:13:41;;;;;;;165.82;157.55;;;;;;;;;;5059867;28;20079;-52
2024/04/03 07:16:07;;;;;;;167.48;159.10;;;;;;;;;;5064294;28;20056;-54
2024/04/03 07:18:32;;;;;;;170.73;162.20;;;;;;;;;;5060099;28;20036;-54
2024/04/03 07:20:58;;;;;;;173.27;164.65;;;;;;;;;;5044986;28;20020;-54
2024/04/03 07:23:27;;;;;;;152.90;145.20;;;;;;;;;;5063167;28;20072;-58
2024/04/03 07:25:56;;;;;;;155.98;148.15;;;;;;;;;;5061803;28;20475;-58
2024/04/03 07:28:22;;;;;;;124.82;118.57;;;;;;;;;;5062369;28;20474;-58
2024/04/03 07:30:48;;;;;;;119.93;113.97;;;;;;;;;;5061219;28;20505;-58
2024/04/03 07:33:13;;;;;;;101.97;96.93;;;;;;;;;;5061755;28;20040;-58
2024/04/03 07:35:39;;;;;;;64.40;61.13;;;;;;;;;;5061830;28;20576;-58
2024/04/03 07:38:04;;;;;;;59.53;56.53;;;;;;;;;;5063013;28;20032;-58
2024/04/03 07:40:30;;;;;;;61.45;58.35;;;;;;;;;;5058597;28;20032;-58
2024/04/03 07:42:56;;;;;;;46.72;43.80;;;;;;;;;;5060881;28;20037;-58
2024/04/03 07:45:21;;;;;;;52.40;49.72;;;;;;;;;;5058505;28;20097;-52
2024/04/03 07:47:48;;;;;;;55.95;53.10;;;;;;;;;;5063148;28;20036;-53
2024/04/03 07:50:13;;;;;;;52.45;49.80;;;;;;;;;;5062458;28;20420;-53
2024/04/03 07:52:39;;;;;;;49.22;46.72;;;;;;;;;;5064160;28;20041;-55
2024/04/03 07:55:05;;;;;;;55.42;52.63;;;;;;;;;;5063434;28;20313;-53
2024/04/03 07:57:31;;;;;;;61.60;58.50;;;;;;;;;;5062440;28;20033;-54
2024/04/03 07:59:56;;;;;;;55.65;52.85;;;;;;;;;;5063551;28;20028;-55
2024/04/03 08:02:21;;;;;;;44.97;42.70;;;;;;;;;;5063676;28;20039;-54
2024/04/03 08:04:47;;;;;;;42.50;40.35;;;;;;;;;;5062225;28;20119;-54
2024/04/03 08:07:12;;;;;;;60.10;57.08;;;;;;;;;;5062983;28;20110;-54
2024/04/03 08:09:37;;;;;;;60.70;57.65;;;;;;;;;;5047448;28;20071;-55
2024/04/03 08:12:03;;;;;;;60.45;57.42;;;;;;;;;;5061473;28;20064;-55
2024/04/03 08:14:28;;;;;;;54.20;51.35;;;;;;;;;;5061113;28;20513;-55
2024/04/03 08:16:54;;;;;;;63.05;59.78;;;;;;;;;;5061562;28;20124;-55
2024/04/03 08:19:20;;;;;;;60.08;57.05;;;;;;;;;;5059579;28;20564;-58
2024/04/03 08:21:48;;;;;;;67.22;63.88;;;;;;;;;;5062168;28;20041;-52
2024/04/03 08:24:13;;;;;;;53.38;50.25;;;;;;;;;;5060613;28;20534;-55
2024/04/03 08:26:39;;;;;;;51.47;48.85;;;;;;;;;;5060757;28;20131;-54
2024/04/03 08:29:04;;;;;;;58.70;55.67;;;;;;;;;;5061301;28;20443;-53
2024/04/03 08:31:30;;;;;;;65.68;62.40;;;;;;;;;;5059060;28;20043;-56
2024/04/03 08:33:57;;;;;;;59.80;56.78;;;;;;;;;;5059933;28;20032;-55
2024/04/03 08:36:23;;;;;;;60.72;57.63;;;;;;;;;;5059607;28;20024;-55
2024/04/03 08:38:49;;;;;;;65.47;62.13;;;;;;;;;;5057910;28;20032;-52
2024/04/03 08:41:15;;;;;;;64.88;61.63;;;;;;;;;;5058576;28;20504;-53
2024/04/03 08:43:40;;;;;;;65.35;62.08;;;;;;;;;;5061055;28;20041;-52
2024/04/03 08:46:07;;;;;;;72.97;69.32;;;;;;;;;;5058263;28;20391;-54
2024/04/03 08:48:34;;;;;;;78.47;74.55;;;;;;;;;;5060464;28;20032;-52
2024/04/03 08:51:00;;;;;;;75.93;72.13;;;;;;;;;;5041210;28;20044;-53
2024/04/03 08:53:25;;;;;;;76.50;72.70;;;;;;;;;;5058453;28;20029;-54
2024/04/03 08:55:54;;;;;;;71.00;67.30;;;;;;;;;;5057573;28;20549;-52
2024/04/03 08:58:21;;;;;;;75.78;72.00;;;;;;;;;;5062771;28;20123;-55
2024/04/03 09:00:47;;;;;;;74.90;71.15;;;;;;;;;;5059096;28;20043;-54
2024/04/03 09:03:14;;;;;;;73.20;69.55;;;;;;;;;;5061057;28;20040;-55
2024/04/03 09:05:40;;;;;;;72.20;68.60;;;;;;;;;;5045477;28;20063;-57
2024/04/03 09:08:07;;;;;;;67.35;63.55;;;;;;;;;;5059645;28;20139;-58
2024/04/03 09:13:18;;;;;;;61.80;58.67;;;;;;;;;;5061613;28;20032;-57
2024/04/03 09:15:44;;;;;;;52.35;49.75;;;;;;;;;;5058847;28;20093;-57
2024/04/03 09:18:09;;;;;;;51.75;48.95;;;;;;;;;;5059603;28;20118;-57
2024/04/03 09:20:38;;;;;;;51.30;48.67;;;;;;;;;;5058547;28;20111;-58
2024/04/03 09:23:06;;;;;;;51.53;48.92;;;;;;;;;;5061624;28;20133;-58
2024/04/03 09:25:32;;;;;;;67.97;64.57;;;;;;;;;;5057785;28;20044;-58
2024/04/03 09:28:03;;;;;;;70.68;67.10;;;;;;;;;;5058920;28;20033;-57
2024/04/03 09:30:29;;;;;;;72.72;69.07;;;;;;;;;;5058881;28;20040;-57
2024/04/03 09:32:56;;;;;;;123.32;117.18;;;;;;;;;;5056322;28;20036;-57
2024/04/03 09:35:27;;;;;;;83.55;79.35;;;;;;;;;;5060443;28;20127;-56
2024/04/03 09:37:52;;;;;;;116.15;110.35;;;;;;;;;;5060501;28;20531;-56
2024/04/03 09:40:18;;;;;;;108.38;102.95;;;;;;;;;;5059399;28;20040;-56
2024/04/03 09:42:46;;;;;;;180.65;171.63;;;;;;;;;;5041561;28;20059;-57
2024/04/03 09:45:12;;;;;;;180.63;171.65;;;;;;;;;;5057587;28;20051;-56
2024/04/03 09:47:41;;;;;;;154.90;147.20;;;;;;;;;;5058521;28;20044;-57
2024/04/03 09:50:09;;;;;;;164.52;156.43;;;;;;;;;;5057738;28;20517;-56
2024/04/03 09:52:35;;;;;;;160.43;152.38;;;;;;;;;;5059168;28;20033;-57
2024/04/03 09:55:01;;;;;;;158.45;150.57;;;;;;;;;;5059026;28;20482;-57
2024/04/03 09:57:27;;;;;;;88.45;83.97;;;;;;;;;;5057129;28;20032;-56
2024/04/03 09:59:52;;;;;;;116.93;111.15;;;;;;;;;;5058118;28;20043;-56
2024/04/03 10:02:19;;;;;;;108.97;103.57;;;;;;;;;;5056616;28;20052;-56
2024/04/03 10:04:44;;;;;;;101.13;96.13;;;;;;;;;;5057566;28;20067;-56
2024/04/03 10:07:21;;;;;;;119.10;113.20;;;;;;;;;;5059470;28;20028;-56
2024/04/03 10:09:54;;;;;;;76.20;72.40;;;;;;;;;;5043870;28;20032;-56
2024/04/03 10:12:21;;;;;;;66.07;62.75;;;;;;;;;;5040211;28;20033;-56
2024/04/03 10:14:56;;;;;;;52.17;49.55;;;;;;;;;;5058885;28;20037;-56
2024/04/03 10:17:22;;;;;;;43.50;41.30;;;;;;;;;;5060571;28;20032;-55
2024/04/03 10:19:48;;;;;;;45.13;42.83;;;;;;;;;;5057243;28;20059;-57
2024/04/03 10:22:17;;;;;;;34.92;33.03;;;;;;;;;;5042415;28;20056;-56
2024/04/03 10:24:43;;;;;;;34.70;32.90;;;;;;;;;;5058798;28;20081;-56
2024/04/03 10:27:09;;;;;;;36.65;34.75;;;;;;;;;;5058087;28;20482;-56
2024/04/03 10:29:36;;;;;;;36.30;34.40;;;;;;;;;;5059058;28;20037;-56
2024/04/03 10:32:02;;;;;;;35.70;33.90;;;;;;;;;;5058315;28;20048;-56
2024/04/03 10:34:27;;;;;;;36.55;34.55;;;;;;;;;;5058912;28;20044;-56
2024/04/03 10:36:53;;;;;;;37.45;35.42;;;;;;;;;;5058790;28;20031;-55
2024/04/03 10:39:18;;;;;;;36.47;34.58;;;;;;;;;;5060067;28;20047;-55
2024/04/03 10:41:44;;;;;;;34.00;32.25;;;;;;;;;;5045153;28;20428;-54
2024/04/03 10:44:12;;;;;;;41.22;39.13;;;;;;;;;;5063784;28;20033;-55
2024/04/03 10:46:38;;;;;;;42.45;40.30;;;;;;;;;;5064557;28;20036;-54
2024/04/03 10:49:04;;;;;;;45.75;43.45;;;;;;;;;;5065800;28;20051;-55
2024/04/03 10:51:30;;;;;;;41.92;39.80;;;;;;;;;;5061794;28;20037;-56
2024/04/03 10:53:56;;;;;;;52.95;50.25;;;;;;;;;;5064330;28;20153;-56
2024/04/03 10:56:25;;;;;;;72.63;68.82;;;;;;;;;;5064247;28;20492;-56
2024/04/03 10:58:50;;;;;;;69.15;65.72;;;;;;;;;;5061248;28;20045;-56
2024/04/03 11:01:16;;;;;;;66.80;63.42;;;;;;;;;;5062662;28;20025;-58
2024/04/03 11:03:42;;;;;;;80.60;76.25;;;;;;;;;;5060752;28;20032;-58
2024/04/03 11:06:12;;;;;;;92.00;87.43;;;;;;;;;;5065008;28;20040;-58
2024/04/03 11:08:39;;;;;;;87.70;83.32;;;;;;;;;;5061983;28;20506;-58
2024/04/03 11:11:05;;;;;;;157.05;149.10;;;;;;;;;;5060024;28;20424;-58
2024/04/03 11:13:31;;;;;;;184.57;175.50;;;;;;;;;;5063647;28;20717;-58
2024/04/03 11:15:56;;;;;;;183.25;174.23;;;;;;;;;;5042945;28;20040;-57
2024/04/03 11:18:22;;;;;;;185.65;176.50;;;;;;;;;;5061830;28;20044;-57
2024/04/03 11:20:48;;;;;;;169.02;160.63;;;;;;;;;;5060761;28;20036;-57
2024/04/03 11:23:14;;;;;;;153.85;146.20;;;;;;;;;;5065201;28;20033;-57
2024/04/03 11:25:39;;;;;;;118.80;112.82;;;;;;;;;;5060749;28;20123;-58
2024/04/03 11:28:05;;;;;;;103.40;98.25;;;;;;;;;;5061650;28;20117;-58
2024/04/03 11:30:31;;;;;;;107.35;102.03;;;;;;;;;;5046275;28;20025;-56
2024/04/03 11:32:57;;;;;;;99.25;94.22;;;;;;;;;;5058751;28;20039;-57
2024/04/03 11:35:22;;;;;;;101.57;96.50;;;;;;;;;;5063575;28;20032;-58
2024/04/03 11:37:49;;;;;;;116.65;110.82;;;;;;;;;;5060999;28;20025;-58
2024/04/03 11:40:14;;;;;;;103.88;98.75;;;;;;;;;;5059762;28;20081;-58
2024/04/03 11:42:40;;;;;;;118.30;112.35;;;;;;;;;;5060983;28;20075;-58
2024/04/03 11:45:05;;;;;;;67.72;64.32;;;;;;;;;;5060150;28;20044;-58
2024/04/03 11:47:32;;;;;;;146.70;139.35;;;;;;;;;;5060822;28;20036;-58
2024/04/03 11:49:58;;;;;;;113.85;108.15;;;;;;;;;;5062355;28;20028;-58
2024/04/03 11:52:23;;;;;;;153.73;145.93;;;;;;;;;;5062483;28;20097;-58
2024/04/03 11:54:48;;;;;;;161.95;153.90;;;;;;;;;;5060850;28;20048;-57
2024/04/03 11:57:14;;;;;;;177.50;168.70;;;;;;;;;;5062048;28;20029;-57
2024/04/03 11:59:39;;;;;;;155.35;147.63;;;;;;;;;;5058664;28;20032;-57
2024/04/03 12:02:05;;;;;;;181.60;172.65;;;;;;;;;;5060972;28;20487;-57
2024/04/03 12:04:31;;;;;;;187.70;178.40;;;;;;;;;;5063138;28;20036;-57
2024/04/03 12:06:57;;;;;;;159.23;151.32;;;;;;;;;;5048099;28;20478;-57
2024/04/03 12:09:22;;;;;;;177.95;169.13;;;;;;;;;;5061155;28;20074;-57
2024/04/03 12:11:48;;;;;;;175.85;167.18;;;;;;;;;;5060429;28;20044;-57
2024/04/03 12:14:13;;;;;;;145.20;138.00;;;;;;;;;;5061434;28;20044;-57
2024/04/03 12:16:39;;;;;;;142.63;135.57;;;;;;;;;;5059149;28;20052;-58
2024/04/03 12:19:15;;;;;;;116.72;110.93;;;;;;;;;;5062962;28;20154;-56
2024/04/03 12:21:42;;;;;;;133.82;127.20;;;;;;;;;;5058874;28;20143;-58
2024/04/03 12:24:08;;;;;;;164.13;156.00;;;;;;;;;;5059630;28;20681;-57
2024/04/03 12:26:33;;;;;;;166.85;158.57;;;;;;;;;;5059270;28;20044;-57
2024/04/03 12:28:59;;;;;;;180.00;171.10;;;;;;;;;;5059639;28;20094;-58
2024/04/03 12:31:25;;;;;;;184.40;175.35;;;;;;;;;;5061217;28;20078;-57
2024/04/03 12:33:52;;;;;;;199.73;189.90;;;;;;;;;;5058291;28;20067;-56
2024/04/03 12:36:18;;;;;;;209.15;198.85;;;;;;;;;;5059149;28;20124;-58
2024/04/03 12:38:47;;;;;;;214.05;203.52;;;;;;;;;;5058745;28;20127;-58
2024/04/03 12:41:13;;;;;;;164.93;156.65;;;;;;;;;;5041413;28;20032;-56
2024/04/03 12:43:38;;;;;;;181.65;172.30;;;;;;;;;;5058737;28;20119;-57
2024/04/03 12:46:04;;;;;;;171.60;163.00;;;;;;;;;;5058459;28;20638;-57
2024/04/03 12:48:29;;;;;;;134.90;128.15;;;;;;;;;;5058520;28;20040;-57
2024/04/03 12:50:56;;;;;;;106.25;100.93;;;;;;;;;;5060204;28;20032;-55
2024/04/03 12:53:22;;;;;;;83.45;79.25;;;;;;;;;;5059528;28;20438;-57
2024/04/03 12:55:47;;;;;;;89.85;85.35;;;;;;;;;;5059376;28;20520;-57
2024/04/03 12:58:13;;;;;;;77.95;73.78;;;;;;;;;;5060934;28;20406;-56
2024/04/03 13:00:38;;;;;;;78.55;74.63;;;;;;;;;;5061678;28;20086;-57
2024/04/03 13:03:04;;;;;;;96.65;91.82;;;;;;;;;;5042082;28;20420;-57
2024/04/03 13:05:29;;;;;;;101.30;96.22;;;;;;;;;;5060667;28;20037;-57
2024/04/03 13:07:55;;;;;;;120.30;114.30;;;;;;;;;;5060443;28;20480;-57
2024/04/03 13:10:21;;;;;;;91.38;86.80;;;;;;;;;;5060132;28;20040;-58
2024/04/03 13:12:46;;;;;;;110.05;104.60;;;;;;;;;;5061447;28;20413;-57
2024/04/03 13:15:12;;;;;;;125.55;119.35;;;;;;;;;;5062231;28;20131;-58
2024/04/03 13:17:38;;;;;;;131.98;125.40;;;;;;;;;;5060433;28;20095;-58
2024/04/03 13:20:03;;;;;;;121.65;115.60;;;;;;;;;;5060754;28;20059;-57
2024/04/03 13:22:32;;;;;;;110.38;104.90;;;;;;;;;;5061813;28;20455;-58
2024/04/03 13:24:58;;;;;;;114.15;108.50;;;;;;;;;;5060000;28;20040;-58
2024/04/03 13:27:24;;;;;;;118.07;112.10;;;;;;;;;;5061516;28;20051;-57
2024/04/03 13:29:50;;;;;;;119.85;113.90;;;;;;;;;;5060225;28;20036;-58
2024/04/03 13:32:15;;;;;;;120.35;114.40;;;;;;;;;;5060378;28;20087;-57
2024/04/03 13:34:41;;;;;;;97.88;93.00;;;;;;;;;;5061351;28;20044;-58
2024/04/03 13:37:06;;;;;;;98.43;93.53;;;;;;;;;;5061070;28;21502;-58
2024/04/03 13:39:31;;;;;;;86.07;81.68;;;;;;;;;;5060952;28;20035;-57
2024/04/03 13:41:59;;;;;;;89.88;85.32;;;;;;;;;;5059109;28;20470;-57
2024/04/03 13:44:25;;;;;;;108.07;102.72;;;;;;;;;;5056575;28;20040;-57
2024/04/03 13:46:50;;;;;;;99.35;94.43;;;;;;;;;;5053837;28;20025;-58
2024/04/03 13:49:16;;;;;;;93.57;88.93;;;;;;;;;;5025934;28;20048;-58
2024/04/03 13:51:43;;;;;;;105.10;99.85;;;;;;;;;;5056640;28;20055;-57
2024/04/03 13:54:09;;;;;;;95.13;90.40;;;;;;;;;;5057890;28;20036;-53
2024/04/03 13:56:36;;;;;;;127.00;120.68;;;;;;;;;;5057047;28;20028;-52
2024/04/03 13:59:02;;;;;;;117.70;111.85;;;;;;;;;;5056182;28;20048;-51
2024/04/03 14:01:27;;;;;;;102.60;97.45;;;;;;;;;;5058010;28;20391;-53